sensor_id;sensor_type;location;lat;lon;timestamp;P1;durP1;ratioP1;P2;durP2;ratioP2
39880;SDS011;25554;44.954;10.068;2023-02-11T00:00:14;35.80;;;15.95;;
39880;SDS011;25554;44.954;10.068;2023-02-11T00:02:40;34.88;;;14.88;;
39880;SDS011;25554;44.954;10.068;2023-02-11T00:05:07;37.42;;;15.95;;
39880;SDS011;25554;44.954;10.068;2023-02-11T00:07:34;37.05;;;14.73;;
39880;SDS011;25554;44.954;10.068;2023-02-11T00:10:01;37.42;;;15.70;;
39880;SDS011;25554;44.954;10.068;2023-02-11T00:12:28;33.03;;;14.38;;
39880;SDS011;25554;44.954;10.068;2023-02-11T00:14:55;32.63;;;15.15;;
39880;SDS011;25554;44.954;10.068;2023-02-11T00:17:21;39.72;;;16.67;;
39880;SDS011;25554;44.954;10.068;2023-02-11T00:19:48;32.58;;;15.27;;
39880;SDS011;25554;44.954;10.068;2023-02-11T00:22:15;42.50;;;14.93;;
39880;SDS011;25554;44.954;10.068;2023-02-11T00:24:41;34.08;;;15.20;;
39880;SDS011;25554;44.954;10.068;2023-02-11T00:27:08;35.90;;;14.75;;
39880;SDS011;25554;44.954;10.068;2023-02-11T00:29:38;34.80;;;16.42;;
39880;SDS011;25554;44.954;10.068;2023-02-11T00:32:05;33.60;;;15.45;;
39880;SDS011;25554;44.954;10.068;2023-02-11T00:34:34;35.70;;;16.13;;
39880;SDS011;25554;44.954;10.068;2023-02-11T00:37:01;38.42;;;14.25;;
39880;SDS011;25554;44.954;10.068;2023-02-11T00:39:27;34.30;;;14.32;;
39880;SDS011;25554;44.954;10.068;2023-02-11T00:41:54;43.90;;;16.67;;
39880;SDS011;25554;44.954;10.068;2023-02-11T00:44:21;36.05;;;14.50;;
39880;SDS011;25554;44.954;10.068;2023-02-11T00:46:48;37.08;;;15.13;;
39880;SDS011;25554;44.954;10.068;2023-02-11T00:49:14;38.25;;;15.85;;
39880;SDS011;25554;44.954;10.068;2023-02-11T00:51:41;35.85;;;15.18;;
39880;SDS011;25554;44.954;10.068;2023-02-11T00:54:07;34.45;;;14.52;;
39880;SDS011;25554;44.954;10.068;2023-02-11T00:56:34;31.70;;;14.07;;
39880;SDS011;25554;44.954;10.068;2023-02-11T00:59:00;39.92;;;14.25;;
39880;SDS011;25554;44.954;10.068;2023-02-11T01:01:27;42.83;;;16.23;;
39880;SDS011;25554;44.954;10.068;2023-02-11T01:06:39;35.90;;;14.18;;
39880;SDS011;25554;44.954;10.068;2023-02-11T01:09:24;32.45;;;14.23;;
39880;SDS011;25554;44.954;10.068;2023-02-11T01:11:51;36.90;;;15.40;;
39880;SDS011;25554;44.954;10.068;2023-02-11T01:14:17;38.10;;;16.38;;
39880;SDS011;25554;44.954;10.068;2023-02-11T01:16:44;36.53;;;16.92;;
39880;SDS011;25554;44.954;10.068;2023-02-11T01:19:12;40.13;;;15.43;;
39880;SDS011;25554;44.954;10.068;2023-02-11T01:21:38;36.25;;;14.70;;
39880;SDS011;25554;44.954;10.068;2023-02-11T01:24:05;30.52;;;13.60;;
39880;SDS011;25554;44.954;10.068;2023-02-11T01:26:32;34.47;;;15.60;;
39880;SDS011;25554;44.954;10.068;2023-02-11T01:28:59;39.55;;;15.85;;
39880;SDS011;25554;44.954;10.068;2023-02-11T01:31:26;40.67;;;15.20;;
39880;SDS011;25554;44.954;10.068;2023-02-11T01:33:53;30.15;;;13.43;;
39880;SDS011;25554;44.954;10.068;2023-02-11T01:36:20;35.70;;;14.80;;
39880;SDS011;25554;44.954;10.068;2023-02-11T01:38:46;33.65;;;14.30;;
39880;SDS011;25554;44.954;10.068;2023-02-11T01:41:14;34.50;;;14.02;;
39880;SDS011;25554;44.954;10.068;2023-02-11T01:43:42;38.20;;;13.93;;
39880;SDS011;25554;44.954;10.068;2023-02-11T01:48:56;37.10;;;14.35;;
39880;SDS011;25554;44.954;10.068;2023-02-11T01:51:24;31.85;;;12.73;;
39880;SDS011;25554;44.954;10.068;2023-02-11T01:53:52;32.42;;;13.98;;
39880;SDS011;25554;44.954;10.068;2023-02-11T01:56:38;29.88;;;14.27;;
39880;SDS011;25554;44.954;10.068;2023-02-11T01:59:27;32.90;;;12.57;;
39880;SDS011;25554;44.954;10.068;2023-02-11T02:01:56;34.65;;;14.27;;
39880;SDS011;25554;44.954;10.068;2023-02-11T02:04:24;32.17;;;13.80;;
39880;SDS011;25554;44.954;10.068;2023-02-11T02:07:05;28.20;;;11.50;;
39880;SDS011;25554;44.954;10.068;2023-02-11T02:09:36;31.35;;;12.35;;
39880;SDS011;25554;44.954;10.068;2023-02-11T02:12:04;36.60;;;12.65;;
39880;SDS011;25554;44.954;10.068;2023-02-11T02:14:31;32.85;;;13.27;;
39880;SDS011;25554;44.954;10.068;2023-02-11T02:16:58;28.05;;;12.45;;
39880;SDS011;25554;44.954;10.068;2023-02-11T02:21:58;29.45;;;12.60;;
39880;SDS011;25554;44.954;10.068;2023-02-11T02:34:49;34.63;;;12.55;;
39880;SDS011;25554;44.954;10.068;2023-02-11T02:37:18;32.47;;;13.38;;
39880;SDS011;25554;44.954;10.068;2023-02-11T02:39:47;37.85;;;14.07;;
39880;SDS011;25554;44.954;10.068;2023-02-11T02:42:15;35.15;;;12.90;;
39880;SDS011;25554;44.954;10.068;2023-02-11T02:44:49;27.35;;;12.23;;
39880;SDS011;25554;44.954;10.068;2023-02-11T02:47:16;34.75;;;13.55;;
39880;SDS011;25554;44.954;10.068;2023-02-11T02:49:43;32.85;;;13.00;;
39880;SDS011;25554;44.954;10.068;2023-02-11T02:52:15;34.20;;;13.80;;
39880;SDS011;25554;44.954;10.068;2023-02-11T03:07:50;30.27;;;13.13;;
39880;SDS011;25554;44.954;10.068;2023-02-11T03:12:47;30.25;;;12.90;;
39880;SDS011;25554;44.954;10.068;2023-02-11T03:15:15;34.22;;;14.00;;
39880;SDS011;25554;44.954;10.068;2023-02-11T03:17:43;35.97;;;13.40;;
39880;SDS011;25554;44.954;10.068;2023-02-11T03:20:12;30.02;;;12.38;;
39880;SDS011;25554;44.954;10.068;2023-02-11T03:22:53;30.55;;;13.30;;
39880;SDS011;25554;44.954;10.068;2023-02-11T03:25:20;31.00;;;11.52;;
39880;SDS011;25554;44.954;10.068;2023-02-11T03:27:51;35.05;;;13.10;;
39880;SDS011;25554;44.954;10.068;2023-02-11T03:30:23;33.30;;;12.90;;
39880;SDS011;25554;44.954;10.068;2023-02-11T03:32:55;29.50;;;12.68;;
39880;SDS011;25554;44.954;10.068;2023-02-11T03:35:42;37.70;;;14.07;;
39880;SDS011;25554;44.954;10.068;2023-02-11T03:38:13;32.30;;;13.93;;
39880;SDS011;25554;44.954;10.068;2023-02-11T03:40:40;34.65;;;13.98;;
39880;SDS011;25554;44.954;10.068;2023-02-11T03:43:11;31.08;;;12.43;;
39880;SDS011;25554;44.954;10.068;2023-02-11T03:45:41;33.30;;;13.65;;
39880;SDS011;25554;44.954;10.068;2023-02-11T03:48:19;29.77;;;13.18;;
39880;SDS011;25554;44.954;10.068;2023-02-11T03:50:47;32.42;;;13.05;;
39880;SDS011;25554;44.954;10.068;2023-02-11T03:53:14;31.13;;;12.95;;
39880;SDS011;25554;44.954;10.068;2023-02-11T03:55:41;37.40;;;13.68;;
39880;SDS011;25554;44.954;10.068;2023-02-11T03:58:09;28.63;;;12.32;;
39880;SDS011;25554;44.954;10.068;2023-02-11T04:00:37;33.95;;;12.73;;
39880;SDS011;25554;44.954;10.068;2023-02-11T04:03:04;33.00;;;12.77;;
39880;SDS011;25554;44.954;10.068;2023-02-11T04:05:31;30.08;;;12.80;;
39880;SDS011;25554;44.954;10.068;2023-02-11T04:07:57;33.42;;;13.27;;
39880;SDS011;25554;44.954;10.068;2023-02-11T04:10:24;32.90;;;12.27;;
39880;SDS011;25554;44.954;10.068;2023-02-11T04:12:51;31.50;;;13.10;;
39880;SDS011;25554;44.954;10.068;2023-02-11T04:15:17;28.52;;;12.65;;
39880;SDS011;25554;44.954;10.068;2023-02-11T04:17:44;25.77;;;11.70;;
39880;SDS011;25554;44.954;10.068;2023-02-11T04:20:10;29.00;;;12.13;;
39880;SDS011;25554;44.954;10.068;2023-02-11T04:22:37;33.40;;;11.93;;
39880;SDS011;25554;44.954;10.068;2023-02-11T04:25:04;31.73;;;12.93;;
39880;SDS011;25554;44.954;10.068;2023-02-11T04:27:31;35.22;;;13.10;;
39880;SDS011;25554;44.954;10.068;2023-02-11T04:29:58;29.13;;;11.63;;
39880;SDS011;25554;44.954;10.068;2023-02-11T04:32:24;32.03;;;13.13;;
39880;SDS011;25554;44.954;10.068;2023-02-11T04:34:51;33.75;;;13.48;;
39880;SDS011;25554;44.954;10.068;2023-02-11T04:37:19;30.60;;;11.75;;
39880;SDS011;25554;44.954;10.068;2023-02-11T04:39:46;36.88;;;14.20;;
39880;SDS011;25554;44.954;10.068;2023-02-11T04:42:12;29.52;;;12.40;;
39880;SDS011;25554;44.954;10.068;2023-02-11T04:44:39;30.60;;;12.23;;
39880;SDS011;25554;44.954;10.068;2023-02-11T04:47:05;29.73;;;13.13;;
39880;SDS011;25554;44.954;10.068;2023-02-11T04:49:32;30.80;;;11.95;;
39880;SDS011;25554;44.954;10.068;2023-02-11T04:51:59;32.55;;;12.93;;
39880;SDS011;25554;44.954;10.068;2023-02-11T04:54:25;35.25;;;12.57;;
39880;SDS011;25554;44.954;10.068;2023-02-11T04:56:52;29.48;;;12.10;;
39880;SDS011;25554;44.954;10.068;2023-02-11T04:59:18;30.80;;;13.65;;
39880;SDS011;25554;44.954;10.068;2023-02-11T05:01:45;30.73;;;12.52;;
39880;SDS011;25554;44.954;10.068;2023-02-11T05:04:11;29.70;;;12.15;;
39880;SDS011;25554;44.954;10.068;2023-02-11T05:06:38;31.38;;;13.00;;
39880;SDS011;25554;44.954;10.068;2023-02-11T05:09:04;36.17;;;13.80;;
39880;SDS011;25554;44.954;10.068;2023-02-11T05:11:31;33.35;;;12.63;;
39880;SDS011;25554;44.954;10.068;2023-02-11T05:13:58;28.08;;;11.60;;
39880;SDS011;25554;44.954;10.068;2023-02-11T05:16:24;28.75;;;12.10;;
39880;SDS011;25554;44.954;10.068;2023-02-11T05:18:51;29.02;;;12.07;;
39880;SDS011;25554;44.954;10.068;2023-02-11T05:21:20;33.42;;;12.57;;
39880;SDS011;25554;44.954;10.068;2023-02-11T05:23:46;30.42;;;11.88;;
39880;SDS011;25554;44.954;10.068;2023-02-11T05:26:13;32.78;;;12.48;;
39880;SDS011;25554;44.954;10.068;2023-02-11T05:28:40;33.17;;;12.43;;
39880;SDS011;25554;44.954;10.068;2023-02-11T05:31:07;26.80;;;11.48;;
39880;SDS011;25554;44.954;10.068;2023-02-11T05:33:33;28.25;;;11.65;;
39880;SDS011;25554;44.954;10.068;2023-02-11T05:36:01;24.55;;;10.90;;
39880;SDS011;25554;44.954;10.068;2023-02-11T05:38:29;29.25;;;12.20;;
39880;SDS011;25554;44.954;10.068;2023-02-11T05:40:56;34.35;;;12.60;;
39880;SDS011;25554;44.954;10.068;2023-02-11T05:43:23;29.17;;;11.30;;
39880;SDS011;25554;44.954;10.068;2023-02-11T05:45:50;27.92;;;12.05;;
39880;SDS011;25554;44.954;10.068;2023-02-11T05:48:16;25.98;;;11.20;;
39880;SDS011;25554;44.954;10.068;2023-02-11T05:50:43;30.33;;;12.10;;
39880;SDS011;25554;44.954;10.068;2023-02-11T05:53:10;30.30;;;11.95;;
39880;SDS011;25554;44.954;10.068;2023-02-11T05:55:37;29.73;;;12.55;;
39880;SDS011;25554;44.954;10.068;2023-02-11T05:58:05;33.40;;;11.80;;
39880;SDS011;25554;44.954;10.068;2023-02-11T06:00:32;29.95;;;11.07;;
39880;SDS011;25554;44.954;10.068;2023-02-11T06:02:59;30.02;;;11.52;;
39880;SDS011;25554;44.954;10.068;2023-02-11T06:05:26;33.35;;;12.52;;
39880;SDS011;25554;44.954;10.068;2023-02-11T06:07:52;29.55;;;11.48;;
39880;SDS011;25554;44.954;10.068;2023-02-11T06:10:19;28.58;;;10.82;;
39880;SDS011;25554;44.954;10.068;2023-02-11T06:12:46;25.20;;;10.77;;
39880;SDS011;25554;44.954;10.068;2023-02-11T06:15:12;27.67;;;11.77;;
39880;SDS011;25554;44.954;10.068;2023-02-11T06:17:39;35.05;;;12.25;;
39880;SDS011;25554;44.954;10.068;2023-02-11T06:20:06;26.77;;;10.85;;
39880;SDS011;25554;44.954;10.068;2023-02-11T06:22:33;24.73;;;10.18;;
39880;SDS011;25554;44.954;10.068;2023-02-11T06:24:59;29.02;;;10.90;;
39880;SDS011;25554;44.954;10.068;2023-02-11T06:27:26;25.77;;;10.43;;
39880;SDS011;25554;44.954;10.068;2023-02-11T06:29:53;29.00;;;11.93;;
39880;SDS011;25554;44.954;10.068;2023-02-11T06:32:19;28.27;;;11.63;;
39880;SDS011;25554;44.954;10.068;2023-02-11T06:34:46;31.05;;;10.40;;
39880;SDS011;25554;44.954;10.068;2023-02-11T06:37:12;28.42;;;10.65;;
39880;SDS011;25554;44.954;10.068;2023-02-11T06:39:39;25.25;;;11.50;;
39880;SDS011;25554;44.954;10.068;2023-02-11T06:42:06;26.55;;;11.13;;
39880;SDS011;25554;44.954;10.068;2023-02-11T06:44:32;29.13;;;10.65;;
39880;SDS011;25554;44.954;10.068;2023-02-11T06:46:59;29.83;;;11.75;;
39880;SDS011;25554;44.954;10.068;2023-02-11T06:49:25;35.08;;;11.77;;
39880;SDS011;25554;44.954;10.068;2023-02-11T06:51:52;32.00;;;11.27;;
39880;SDS011;25554;44.954;10.068;2023-02-11T06:54:19;28.70;;;10.55;;
39880;SDS011;25554;44.954;10.068;2023-02-11T06:56:45;36.78;;;11.75;;
39880;SDS011;25554;44.954;10.068;2023-02-11T06:59:15;39.63;;;11.00;;
39880;SDS011;25554;44.954;10.068;2023-02-11T07:01:44;29.20;;;12.10;;
39880;SDS011;25554;44.954;10.068;2023-02-11T07:04:11;29.65;;;12.25;;
39880;SDS011;25554;44.954;10.068;2023-02-11T07:06:39;32.60;;;11.57;;
39880;SDS011;25554;44.954;10.068;2023-02-11T07:09:06;29.05;;;11.60;;
39880;SDS011;25554;44.954;10.068;2023-02-11T07:11:33;26.05;;;11.73;;
39880;SDS011;25554;44.954;10.068;2023-02-11T07:14:01;23.70;;;10.85;;
39880;SDS011;25554;44.954;10.068;2023-02-11T07:16:29;24.55;;;11.00;;
39880;SDS011;25554;44.954;10.068;2023-02-11T07:18:56;29.58;;;10.68;;
39880;SDS011;25554;44.954;10.068;2023-02-11T07:21:23;29.58;;;11.85;;
39880;SDS011;25554;44.954;10.068;2023-02-11T07:23:50;23.42;;;10.80;;
39880;SDS011;25554;44.954;10.068;2023-02-11T07:26:17;20.83;;;9.68;;
39880;SDS011;25554;44.954;10.068;2023-02-11T07:28:47;21.48;;;10.52;;
39880;SDS011;25554;44.954;10.068;2023-02-11T07:31:16;23.83;;;9.82;;
39880;SDS011;25554;44.954;10.068;2023-02-11T07:33:42;20.23;;;9.68;;
39880;SDS011;25554;44.954;10.068;2023-02-11T07:36:10;20.73;;;9.80;;
39880;SDS011;25554;44.954;10.068;2023-02-11T07:38:38;22.10;;;9.70;;
39880;SDS011;25554;44.954;10.068;2023-02-11T07:41:06;20.75;;;9.40;;
39880;SDS011;25554;44.954;10.068;2023-02-11T07:43:34;18.48;;;8.45;;
39880;SDS011;25554;44.954;10.068;2023-02-11T07:46:02;20.35;;;8.80;;
39880;SDS011;25554;44.954;10.068;2023-02-11T07:48:29;21.65;;;9.45;;
39880;SDS011;25554;44.954;10.068;2023-02-11T07:51:03;22.58;;;9.43;;
39880;SDS011;25554;44.954;10.068;2023-02-11T07:53:39;17.92;;;8.63;;
39880;SDS011;25554;44.954;10.068;2023-02-11T07:56:05;20.02;;;9.13;;
39880;SDS011;25554;44.954;10.068;2023-02-11T07:58:32;23.08;;;10.10;;
39880;SDS011;25554;44.954;10.068;2023-02-11T08:00:59;24.25;;;10.27;;
39880;SDS011;25554;44.954;10.068;2023-02-11T08:03:27;27.17;;;10.77;;
39880;SDS011;25554;44.954;10.068;2023-02-11T08:05:53;23.80;;;9.20;;
39880;SDS011;25554;44.954;10.068;2023-02-11T08:08:20;20.42;;;8.80;;
39880;SDS011;25554;44.954;10.068;2023-02-11T08:10:47;21.73;;;9.45;;
39880;SDS011;25554;44.954;10.068;2023-02-11T08:13:13;18.70;;;8.80;;
39880;SDS011;25554;44.954;10.068;2023-02-11T08:15:40;25.75;;;8.77;;
39880;SDS011;25554;44.954;10.068;2023-02-11T08:18:07;25.90;;;9.75;;
39880;SDS011;25554;44.954;10.068;2023-02-11T08:20:33;20.23;;;9.38;;
39880;SDS011;25554;44.954;10.068;2023-02-11T08:23:00;19.58;;;8.30;;
39880;SDS011;25554;44.954;10.068;2023-02-11T08:25:27;18.73;;;9.27;;
39880;SDS011;25554;44.954;10.068;2023-02-11T08:27:53;19.42;;;8.18;;
39880;SDS011;25554;44.954;10.068;2023-02-11T08:30:20;19.38;;;8.25;;
39880;SDS011;25554;44.954;10.068;2023-02-11T08:32:46;16.90;;;8.00;;
39880;SDS011;25554;44.954;10.068;2023-02-11T08:35:13;17.88;;;8.65;;
39880;SDS011;25554;44.954;10.068;2023-02-11T08:37:39;21.15;;;7.82;;
39880;SDS011;25554;44.954;10.068;2023-02-11T08:40:06;16.20;;;7.38;;
39880;SDS011;25554;44.954;10.068;2023-02-11T08:42:33;18.65;;;8.75;;
39880;SDS011;25554;44.954;10.068;2023-02-11T08:44:59;15.15;;;7.90;;
39880;SDS011;25554;44.954;10.068;2023-02-11T08:47:26;15.82;;;7.57;;
39880;SDS011;25554;44.954;10.068;2023-02-11T08:49:52;17.30;;;7.95;;
39880;SDS011;25554;44.954;10.068;2023-02-11T08:52:19;17.33;;;8.13;;
39880;SDS011;25554;44.954;10.068;2023-02-11T08:54:45;18.85;;;7.57;;
39880;SDS011;25554;44.954;10.068;2023-02-11T08:57:12;14.07;;;7.20;;
39880;SDS011;25554;44.954;10.068;2023-02-11T08:59:38;17.33;;;7.75;;
39880;SDS011;25554;44.954;10.068;2023-02-11T09:02:05;14.80;;;8.68;;
39880;SDS011;25554;44.954;10.068;2023-02-11T09:04:32;17.27;;;7.90;;
39880;SDS011;25554;44.954;10.068;2023-02-11T09:07:00;16.85;;;7.72;;
39880;SDS011;25554;44.954;10.068;2023-02-11T09:09:27;16.45;;;8.35;;
39880;SDS011;25554;44.954;10.068;2023-02-11T09:11:53;14.60;;;7.65;;
39880;SDS011;25554;44.954;10.068;2023-02-11T09:14:22;18.02;;;7.82;;
39880;SDS011;25554;44.954;10.068;2023-02-11T09:16:49;15.63;;;7.28;;
39880;SDS011;25554;44.954;10.068;2023-02-11T09:19:16;19.73;;;8.35;;
39880;SDS011;25554;44.954;10.068;2023-02-11T09:21:43;15.77;;;7.90;;
39880;SDS011;25554;44.954;10.068;2023-02-11T09:24:09;16.05;;;8.00;;
39880;SDS011;25554;44.954;10.068;2023-02-11T09:26:36;16.95;;;8.02;;
39880;SDS011;25554;44.954;10.068;2023-02-11T09:29:03;17.02;;;8.10;;
39880;SDS011;25554;44.954;10.068;2023-02-11T09:31:30;14.70;;;7.55;;
39880;SDS011;25554;44.954;10.068;2023-02-11T09:33:59;16.35;;;7.50;;
39880;SDS011;25554;44.954;10.068;2023-02-11T09:36:38;17.45;;;7.85;;
39880;SDS011;25554;44.954;10.068;2023-02-11T09:44:21;16.25;;;9.02;;
39880;SDS011;25554;44.954;10.068;2023-02-11T09:46:54;19.13;;;9.80;;
39880;SDS011;25554;44.954;10.068;2023-02-11T09:49:44;20.17;;;10.43;;
39880;SDS011;25554;44.954;10.068;2023-02-11T09:52:15;21.67;;;9.75;;
39880;SDS011;25554;44.954;10.068;2023-02-11T09:54:55;21.10;;;9.85;;
39880;SDS011;25554;44.954;10.068;2023-02-11T09:57:31;25.15;;;10.95;;
39880;SDS011;25554;44.954;10.068;2023-02-11T09:59:59;24.30;;;11.15;;
39880;SDS011;25554;44.954;10.068;2023-02-11T10:08:40;24.50;;;11.95;;
39880;SDS011;25554;44.954;10.068;2023-02-11T10:11:11;25.05;;;11.48;;
39880;SDS011;25554;44.954;10.068;2023-02-11T10:13:51;23.83;;;11.60;;
39880;SDS011;25554;44.954;10.068;2023-02-11T10:23:55;24.55;;;12.20;;
39880;SDS011;25554;44.954;10.068;2023-02-11T10:26:25;21.88;;;12.63;;
39880;SDS011;25554;44.954;10.068;2023-02-11T10:28:55;22.80;;;12.38;;
39880;SDS011;25554;44.954;10.068;2023-02-11T10:31:33;24.27;;;11.95;;
39880;SDS011;25554;44.954;10.068;2023-02-11T10:34:13;22.80;;;12.57;;
39880;SDS011;25554;44.954;10.068;2023-02-11T10:36:40;25.93;;;13.57;;
39880;SDS011;25554;44.954;10.068;2023-02-11T10:39:10;25.13;;;13.18;;
39880;SDS011;25554;44.954;10.068;2023-02-11T10:41:37;29.00;;;14.80;;
39880;SDS011;25554;44.954;10.068;2023-02-11T10:44:18;27.50;;;14.07;;
39880;SDS011;25554;44.954;10.068;2023-02-11T10:47:26;26.65;;;13.88;;
39880;SDS011;25554;44.954;10.068;2023-02-11T10:49:57;32.33;;;14.85;;
39880;SDS011;25554;44.954;10.068;2023-02-11T10:52:28;31.38;;;15.45;;
39880;SDS011;25554;44.954;10.068;2023-02-11T10:55:08;28.63;;;14.93;;
39880;SDS011;25554;44.954;10.068;2023-02-11T10:57:51;31.93;;;16.13;;
39880;SDS011;25554;44.954;10.068;2023-02-11T11:00:26;34.08;;;17.30;;
39880;SDS011;25554;44.954;10.068;2023-02-11T11:03:01;37.25;;;16.08;;
39880;SDS011;25554;44.954;10.068;2023-02-11T11:05:34;33.95;;;16.25;;
39880;SDS011;25554;44.954;10.068;2023-02-11T11:08:03;34.13;;;15.38;;
39880;SDS011;25554;44.954;10.068;2023-02-11T11:10:42;34.42;;;17.10;;
39880;SDS011;25554;44.954;10.068;2023-02-11T11:13:31;30.48;;;15.15;;
39880;SDS011;25554;44.954;10.068;2023-02-11T11:16:06;29.80;;;15.60;;
39880;SDS011;25554;44.954;10.068;2023-02-11T11:18:33;29.08;;;15.13;;
39880;SDS011;25554;44.954;10.068;2023-02-11T11:21:01;27.95;;;14.95;;
39880;SDS011;25554;44.954;10.068;2023-02-11T11:23:36;32.10;;;15.75;;
39880;SDS011;25554;44.954;10.068;2023-02-11T11:26:13;30.70;;;14.65;;
39880;SDS011;25554;44.954;10.068;2023-02-11T11:28:41;27.52;;;13.90;;
39880;SDS011;25554;44.954;10.068;2023-02-11T11:32:04;29.73;;;15.13;;
39880;SDS011;25554;44.954;10.068;2023-02-11T11:34:31;30.30;;;15.75;;
39880;SDS011;25554;44.954;10.068;2023-02-11T11:37:10;27.50;;;15.35;;
39880;SDS011;25554;44.954;10.068;2023-02-11T11:39:39;27.88;;;15.15;;
39880;SDS011;25554;44.954;10.068;2023-02-11T11:42:26;26.27;;;14.23;;
39880;SDS011;25554;44.954;10.068;2023-02-11T11:45:00;33.03;;;15.93;;
39880;SDS011;25554;44.954;10.068;2023-02-11T11:47:32;28.42;;;15.55;;
39880;SDS011;25554;44.954;10.068;2023-02-11T11:50:11;31.55;;;15.63;;
39880;SDS011;25554;44.954;10.068;2023-02-11T11:52:57;30.92;;;16.17;;
39880;SDS011;25554;44.954;10.068;2023-02-11T11:55:26;28.90;;;16.55;;
39880;SDS011;25554;44.954;10.068;2023-02-11T11:57:58;34.38;;;16.52;;
39880;SDS011;25554;44.954;10.068;2023-02-11T12:14:51;35.53;;;18.67;;
39880;SDS011;25554;44.954;10.068;2023-02-11T12:17:45;30.13;;;16.38;;
39880;SDS011;25554;44.954;10.068;2023-02-11T12:23:28;30.60;;;18.50;;
39880;SDS011;25554;44.954;10.068;2023-02-11T12:29:30;36.00;;;20.20;;
39880;SDS011;25554;44.954;10.068;2023-02-11T12:39:48;41.33;;;22.70;;
39880;SDS011;25554;44.954;10.068;2023-02-11T12:48:25;37.13;;;19.63;;
39880;SDS011;25554;44.954;10.068;2023-02-11T13:08:15;37.25;;;19.98;;
39880;SDS011;25554;44.954;10.068;2023-02-11T13:11:22;34.35;;;19.38;;
39880;SDS011;25554;44.954;10.068;2023-02-11T13:21:42;34.17;;;17.88;;
39880;SDS011;25554;44.954;10.068;2023-02-11T13:32:40;32.15;;;17.08;;
39880;SDS011;25554;44.954;10.068;2023-02-11T13:35:33;31.35;;;16.67;;
39880;SDS011;25554;44.954;10.068;2023-02-11T13:38:35;32.85;;;17.48;;
39880;SDS011;25554;44.954;10.068;2023-02-11T13:41:14;30.40;;;16.38;;
39880;SDS011;25554;44.954;10.068;2023-02-11T13:43:41;39.07;;;16.33;;
39880;SDS011;25554;44.954;10.068;2023-02-11T13:46:12;29.13;;;17.23;;
39880;SDS011;25554;44.954;10.068;2023-02-11T13:48:46;30.27;;;17.15;;
39880;SDS011;25554;44.954;10.068;2023-02-11T13:51:18;27.85;;;16.38;;
39880;SDS011;25554;44.954;10.068;2023-02-11T13:54:02;31.58;;;17.27;;
39880;SDS011;25554;44.954;10.068;2023-02-11T13:56:34;32.15;;;17.77;;
39880;SDS011;25554;44.954;10.068;2023-02-11T13:59:04;33.85;;;16.48;;
39880;SDS011;25554;44.954;10.068;2023-02-11T14:02:35;37.22;;;16.73;;
39880;SDS011;25554;44.954;10.068;2023-02-11T14:05:08;28.63;;;16.48;;
39880;SDS011;25554;44.954;10.068;2023-02-11T14:13:26;32.97;;;17.00;;
39880;SDS011;25554;44.954;10.068;2023-02-11T14:21:21;28.08;;;16.98;;
39880;SDS011;25554;44.954;10.068;2023-02-11T14:24:38;30.40;;;17.02;;
39880;SDS011;25554;44.954;10.068;2023-02-11T14:26:49;29.42;;;16.27;;
39880;SDS011;25554;44.954;10.068;2023-02-11T14:32:04;29.73;;;16.90;;
39880;SDS011;25554;44.954;10.068;2023-02-11T14:34:41;32.38;;;18.73;;
39880;SDS011;25554;44.954;10.068;2023-02-11T14:42:17;30.40;;;17.02;;
39880;SDS011;25554;44.954;10.068;2023-02-11T14:44:50;30.63;;;16.52;;
39880;SDS011;25554;44.954;10.068;2023-02-11T14:47:20;30.20;;;17.02;;
39880;SDS011;25554;44.954;10.068;2023-02-11T14:50:05;35.33;;;17.35;;
39880;SDS011;25554;44.954;10.068;2023-02-11T14:52:39;28.80;;;16.70;;
39880;SDS011;25554;44.954;10.068;2023-02-11T15:00:04;32.97;;;16.67;;
39880;SDS011;25554;44.954;10.068;2023-02-11T15:02:39;32.38;;;17.50;;
39880;SDS011;25554;44.954;10.068;2023-02-11T15:05:12;31.90;;;18.25;;
39880;SDS011;25554;44.954;10.068;2023-02-11T15:07:49;33.53;;;16.98;;
39880;SDS011;25554;44.954;10.068;2023-02-11T15:10:28;38.38;;;19.23;;
39880;SDS011;25554;44.954;10.068;2023-02-11T15:13:13;29.77;;;17.55;;
39880;SDS011;25554;44.954;10.068;2023-02-11T15:15:45;31.33;;;17.73;;
39880;SDS011;25554;44.954;10.068;2023-02-11T15:18:16;28.70;;;16.67;;
39880;SDS011;25554;44.954;10.068;2023-02-11T15:20:48;30.35;;;17.40;;
39880;SDS011;25554;44.954;10.068;2023-02-11T15:23:23;31.23;;;16.40;;
39880;SDS011;25554;44.954;10.068;2023-02-11T15:25:51;37.22;;;17.05;;
39880;SDS011;25554;44.954;10.068;2023-02-11T15:30:57;28.55;;;16.50;;
39880;SDS011;25554;44.954;10.068;2023-02-11T15:33:40;29.83;;;16.27;;
39880;SDS011;25554;44.954;10.068;2023-02-11T15:36:11;29.73;;;17.08;;
39880;SDS011;25554;44.954;10.068;2023-02-11T15:38:39;34.25;;;17.58;;
39880;SDS011;25554;44.954;10.068;2023-02-11T15:43:43;28.40;;;15.98;;
39880;SDS011;25554;44.954;10.068;2023-02-11T15:46:15;30.23;;;16.98;;
39880;SDS011;25554;44.954;10.068;2023-02-11T15:48:49;30.17;;;17.20;;
39880;SDS011;25554;44.954;10.068;2023-02-11T15:51:30;31.17;;;16.92;;
39880;SDS011;25554;44.954;10.068;2023-02-11T15:54:04;33.10;;;16.90;;
39880;SDS011;25554;44.954;10.068;2023-02-11T15:56:40;31.38;;;17.60;;
39880;SDS011;25554;44.954;10.068;2023-02-11T15:59:13;31.08;;;17.08;;
39880;SDS011;25554;44.954;10.068;2023-02-11T16:01:43;30.75;;;16.73;;
39880;SDS011;25554;44.954;10.068;2023-02-11T16:04:15;30.67;;;17.75;;
39880;SDS011;25554;44.954;10.068;2023-02-11T16:06:44;30.90;;;16.80;;
39880;SDS011;25554;44.954;10.068;2023-02-11T16:16:55;29.52;;;16.08;;
39880;SDS011;25554;44.954;10.068;2023-02-11T16:19:25;31.85;;;16.98;;
39880;SDS011;25554;44.954;10.068;2023-02-11T16:21:53;29.20;;;16.35;;
39880;SDS011;25554;44.954;10.068;2023-02-11T16:24:23;29.38;;;16.90;;
39880;SDS011;25554;44.954;10.068;2023-02-11T16:27:59;33.17;;;16.83;;
39880;SDS011;25554;44.954;10.068;2023-02-11T16:30:00;49.55;;;19.77;;
39880;SDS011;25554;44.954;10.068;2023-02-11T16:32:28;68.05;;;21.40;;
39880;SDS011;25554;44.954;10.068;2023-02-11T16:34:55;98.45;;;26.48;;
39880;SDS011;25554;44.954;10.068;2023-02-11T16:37:24;52.60;;;20.73;;
39880;SDS011;25554;44.954;10.068;2023-02-11T16:39:54;46.92;;;19.80;;
39880;SDS011;25554;44.954;10.068;2023-02-11T16:42:22;38.22;;;20.10;;
39880;SDS011;25554;44.954;10.068;2023-02-11T16:44:49;39.90;;;17.73;;
39880;SDS011;25554;44.954;10.068;2023-02-11T16:47:18;41.80;;;19.25;;
39880;SDS011;25554;44.954;10.068;2023-02-11T16:49:48;53.75;;;20.00;;
39880;SDS011;25554;44.954;10.068;2023-02-11T16:52:15;39.22;;;19.52;;
39880;SDS011;25554;44.954;10.068;2023-02-11T16:54:44;35.90;;;18.35;;
39880;SDS011;25554;44.954;10.068;2023-02-11T16:59:43;41.65;;;19.75;;
39880;SDS011;25554;44.954;10.068;2023-02-11T17:02:20;41.15;;;20.52;;
39880;SDS011;25554;44.954;10.068;2023-02-11T17:04:51;40.78;;;21.15;;
39880;SDS011;25554;44.954;10.068;2023-02-11T17:07:18;41.17;;;19.00;;
39880;SDS011;25554;44.954;10.068;2023-02-11T17:09:45;46.28;;;20.67;;